sensor_id;sensor_type;location;lat;lon;timestamp;temperature;humidity
38568;DHT22;24338;48.280;10.970;2023-05-14T00:01:27;10.60;99.90
38568;DHT22;24338;48.280;10.970;2023-05-14T00:03:54;10.60;99.90
38568;DHT22;24338;48.280;10.970;2023-05-14T00:06:21;10.60;99.90
38568;DHT22;24338;48.280;10.970;2023-05-14T00:08:48;10.60;99.90
38568;DHT22;24338;48.280;10.970;2023-05-14T00:11:15;10.60;99.90
38568;DHT22;24338;48.280;10.970;2023-05-14T00:13:45;10.50;99.90
38568;DHT22;24338;48.280;10.970;2023-05-14T00:16:16;10.50;99.90
38568;DHT22;24338;48.280;10.970;2023-05-14T00:18:58;10.60;99.90
38568;DHT22;24338;48.280;10.970;2023-05-14T00:21:24;10.60;99.90
38568;DHT22;24338;48.280;10.970;2023-05-14T00:23:51;10.60;99.90
38568;DHT22;24338;48.280;10.970;2023-05-14T00:26:18;10.50;99.90
38568;DHT22;24338;48.280;10.970;2023-05-14T00:28:47;10.60;99.90
38568;DHT22;24338;48.280;10.970;2023-05-14T00:31:14;10.50;99.90
38568;DHT22;24338;48.280;10.970;2023-05-14T00:33:41;10.50;99.90
38568;DHT22;24338;48.280;10.970;2023-05-14T00:36:08;10.50;99.90
38568;DHT22;24338;48.280;10.970;2023-05-14T00:38:35;10.50;99.90
38568;DHT22;24338;48.280;10.970;2023-05-14T00:41:02;10.50;99.90
38568;DHT22;24338;48.280;10.970;2023-05-14T00:43:29;10.50;99.90
38568;DHT22;24338;48.280;10.970;2023-05-14T00:45:57;10.50;99.90
38568;DHT22;24338;48.280;10.970;2023-05-14T00:48:24;10.50;99.90
38568;DHT22;24338;48.280;10.970;2023-05-14T00:50:51;10.50;99.90
38568;DHT22;24338;48.280;10.970;2023-05-14T00:53:19;10.50;99.90
38568;DHT22;24338;48.280;10.970;2023-05-14T00:55:48;10.50;99.90
38568;DHT22;24338;48.280;10.970;2023-05-14T00:58:15;10.50;99.90
38568;DHT22;24338;48.280;10.970;2023-05-14T01:00:43;10.50;99.90
38568;DHT22;24338;48.280;10.970;2023-05-14T01:03:10;10.50;99.90
38568;DHT22;24338;48.280;10.970;2023-05-14T01:05:42;10.50;99.90
38568;DHT22;24338;48.280;10.970;2023-05-14T01:10:51;10.50;99.90
38568;DHT22;24338;48.280;10.970;2023-05-14T01:16:04;10.40;99.90
38568;DHT22;24338;48.280;10.970;2023-05-14T01:18:33;10.40;99.90
38568;DHT22;24338;48.280;10.970;2023-05-14T01:21:00;10.40;99.90
38568;DHT22;24338;48.280;10.970;2023-05-14T01:23:27;10.40;99.90
38568;DHT22;24338;48.280;10.970;2023-05-14T01:25:54;10.40;99.90
38568;DHT22;24338;48.280;10.970;2023-05-14T01:28:31;10.40;99.90
38568;DHT22;24338;48.280;10.970;2023-05-14T01:31:07;10.40;99.90
38568;DHT22;24338;48.280;10.970;2023-05-14T01:33:36;10.40;99.90
38568;DHT22;24338;48.280;10.970;2023-05-14T01:36:03;10.40;99.90
38568;DHT22;24338;48.280;10.970;2023-05-14T01:38:32;10.30;99.90
38568;DHT22;24338;48.280;10.970;2023-05-14T01:41:00;10.30;99.90
38568;DHT22;24338;48.280;10.970;2023-05-14T01:43:27;10.30;99.90
38568;DHT22;24338;48.280;10.970;2023-05-14T01:45:55;10.30;99.90
38568;DHT22;24338;48.280;10.970;2023-05-14T01:48:22;10.30;99.90
38568;DHT22;24338;48.280;10.970;2023-05-14T01:50:49;10.30;99.90
38568;DHT22;24338;48.280;10.970;2023-05-14T01:53:16;10.30;99.90
38568;DHT22;24338;48.280;10.970;2023-05-14T01:55:43;10.30;99.90
38568;DHT22;24338;48.280;10.970;2023-05-14T01:58:09;10.30;99.90
38568;DHT22;24338;48.280;10.970;2023-05-14T02:00:36;10.30;99.90
38568;DHT22;24338;48.280;10.970;2023-05-14T02:03:03;10.20;99.90
38568;DHT22;24338;48.280;10.970;2023-05-14T02:05:31;10.20;99.90
38568;DHT22;24338;48.280;10.970;2023-05-14T02:07:57;10.20;99.90
38568;DHT22;24338;48.280;10.970;2023-05-14T02:10:24;10.20;99.90
38568;DHT22;24338;48.280;10.970;2023-05-14T02:12:51;10.20;99.90
38568;DHT22;24338;48.280;10.970;2023-05-14T02:15:18;10.20;99.90
38568;DHT22;24338;48.280;10.970;2023-05-14T02:17:45;10.20;99.90
38568;DHT22;24338;48.280;10.970;2023-05-14T02:20:12;10.20;99.90
38568;DHT22;24338;48.280;10.970;2023-05-14T02:22:39;10.20;99.90
38568;DHT22;24338;48.280;10.970;2023-05-14T02:25:11;10.10;99.90
38568;DHT22;24338;48.280;10.970;2023-05-14T02:27:38;10.10;99.90
38568;DHT22;24338;48.280;10.970;2023-05-14T02:30:05;10.10;99.90
38568;DHT22;24338;48.280;10.970;2023-05-14T02:32:32;10.10;99.90
38568;DHT22;24338;48.280;10.970;2023-05-14T02:34:59;10.10;99.90
38568;DHT22;24338;48.280;10.970;2023-05-14T02:37:26;10.20;99.90
38568;DHT22;24338;48.280;10.970;2023-05-14T02:39:53;10.10;99.90
38568;DHT22;24338;48.280;10.970;2023-05-14T02:42:20;10.10;99.90
38568;DHT22;24338;48.280;10.970;2023-05-14T02:44:47;10.10;99.90
38568;DHT22;24338;48.280;10.970;2023-05-14T02:47:14;10.10;99.90
38568;DHT22;24338;48.280;10.970;2023-05-14T02:49:40;10.10;99.90
38568;DHT22;24338;48.280;10.970;2023-05-14T02:52:10;10.00;99.90
38568;DHT22;24338;48.280;10.970;2023-05-14T02:54:37;10.00;99.90
38568;DHT22;24338;48.280;10.970;2023-05-14T02:57:04;10.00;99.90
38568;DHT22;24338;48.280;10.970;2023-05-14T02:59:31;10.00;99.90
38568;DHT22;24338;48.280;10.970;2023-05-14T03:01:58;10.00;99.90
38568;DHT22;24338;48.280;10.970;2023-05-14T03:04:25;10.00;99.90
38568;DHT22;24338;48.280;10.970;2023-05-14T03:06:52;10.00;99.90
38568;DHT22;24338;48.280;10.970;2023-05-14T03:09:19;9.90;99.90
38568;DHT22;24338;48.280;10.970;2023-05-14T03:11:46;9.90;99.90
38568;DHT22;24338;48.280;10.970;2023-05-14T03:14:13;9.90;99.90
38568;DHT22;24338;48.280;10.970;2023-05-14T03:16:40;9.90;99.90
38568;DHT22;24338;48.280;10.970;2023-05-14T03:19:08;9.90;99.90
38568;DHT22;24338;48.280;10.970;2023-05-14T03:21:35;9.90;99.90
38568;DHT22;24338;48.280;10.970;2023-05-14T03:24:02;9.90;99.90
38568;DHT22;24338;48.280;10.970;2023-05-14T03:26:29;9.80;99.90
38568;DHT22;24338;48.280;10.970;2023-05-14T03:28:56;9.80;99.90
38568;DHT22;24338;48.280;10.970;2023-05-14T03:31:23;9.80;99.90
38568;DHT22;24338;48.280;10.970;2023-05-14T03:33:50;9.80;99.90
38568;DHT22;24338;48.280;10.970;2023-05-14T03:36:17;9.80;99.90
38568;DHT22;24338;48.280;10.970;2023-05-14T03:38:44;9.80;99.90
38568;DHT22;24338;48.280;10.970;2023-05-14T03:41:10;9.80;99.90
38568;DHT22;24338;48.280;10.970;2023-05-14T03:43:37;9.80;99.90
38568;DHT22;24338;48.280;10.970;2023-05-14T03:46:04;9.80;99.90
38568;DHT22;24338;48.280;10.970;2023-05-14T03:48:31;9.90;99.90
38568;DHT22;24338;48.280;10.970;2023-05-14T03:50:58;9.80;99.90
38568;DHT22;24338;48.280;10.970;2023-05-14T03:53:25;9.80;99.90
38568;DHT22;24338;48.280;10.970;2023-05-14T03:55:52;9.80;99.90
38568;DHT22;24338;48.280;10.970;2023-05-14T03:58:18;9.80;99.90
38568;DHT22;24338;48.280;10.970;2023-05-14T04:00:45;9.80;99.90
38568;DHT22;24338;48.280;10.970;2023-05-14T04:03:12;9.80;99.90
38568;DHT22;24338;48.280;10.970;2023-05-14T04:05:39;9.80;99.90
38568;DHT22;24338;48.280;10.970;2023-05-14T04:08:06;9.80;99.90
38568;DHT22;24338;48.280;10.970;2023-05-14T04:10:33;9.80;99.90
38568;DHT22;24338;48.280;10.970;2023-05-14T04:13:00;9.90;99.90
38568;DHT22;24338;48.280;10.970;2023-05-14T04:15:27;9.90;99.90
38568;DHT22;24338;48.280;10.970;2023-05-14T04:17:53;9.90;99.90
38568;DHT22;24338;48.280;10.970;2023-05-14T04:20:20;9.90;99.90
38568;DHT22;24338;48.280;10.970;2023-05-14T04:22:47;9.90;99.90
38568;DHT22;24338;48.280;10.970;2023-05-14T04:25:14;9.90;99.90
38568;DHT22;24338;48.280;10.970;2023-05-14T04:27:41;9.90;99.90
38568;DHT22;24338;48.280;10.970;2023-05-14T04:30:09;9.90;99.90
38568;DHT22;24338;48.280;10.970;2023-05-14T04:32:36;9.90;99.90
38568;DHT22;24338;48.280;10.970;2023-05-14T04:35:04;9.90;99.90
38568;DHT22;24338;48.280;10.970;2023-05-14T04:37:31;9.90;99.90
38568;DHT22;24338;48.280;10.970;2023-05-14T04:39:58;10.00;99.90
38568;DHT22;24338;48.280;10.970;2023-05-14T04:42:25;10.00;99.90
38568;DHT22;24338;48.280;10.970;2023-05-14T04:44:52;9.90;99.90
38568;DHT22;24338;48.280;10.970;2023-05-14T04:47:19;10.00;99.90
38568;DHT22;24338;48.280;10.970;2023-05-14T04:49:46;10.00;99.90
38568;DHT22;24338;48.280;10.970;2023-05-14T04:52:14;10.10;99.90
38568;DHT22;24338;48.280;10.970;2023-05-14T04:54:41;10.10;99.90
38568;DHT22;24338;48.280;10.970;2023-05-14T04:57:08;10.10;99.90
38568;DHT22;24338;48.280;10.970;2023-05-14T04:59:35;10.10;99.90
38568;DHT22;24338;48.280;10.970;2023-05-14T05:02:02;10.10;99.90
38568;DHT22;24338;48.280;10.970;2023-05-14T05:04:28;10.10;99.90
38568;DHT22;24338;48.280;10.970;2023-05-14T05:06:55;10.10;99.90
38568;DHT22;24338;48.280;10.970;2023-05-14T05:09:22;10.10;99.90
38568;DHT22;24338;48.280;10.970;2023-05-14T05:11:49;10.20;99.90
38568;DHT22;24338;48.280;10.970;2023-05-14T05:14:16;10.20;99.90
38568;DHT22;24338;48.280;10.970;2023-05-14T05:16:43;10.20;99.90
38568;DHT22;24338;48.280;10.970;2023-05-14T05:19:10;10.10;99.90
38568;DHT22;24338;48.280;10.970;2023-05-14T05:21:37;10.20;99.90
38568;DHT22;24338;48.280;10.970;2023-05-14T05:24:07;10.10;99.90
38568;DHT22;24338;48.280;10.970;2023-05-14T05:26:34;10.10;99.90
38568;DHT22;24338;48.280;10.970;2023-05-14T05:29:04;10.10;99.90
38568;DHT22;24338;48.280;10.970;2023-05-14T05:31:31;10.20;99.90
38568;DHT22;24338;48.280;10.970;2023-05-14T05:33:59;10.20;99.90
38568;DHT22;24338;48.280;10.970;2023-05-14T05:36:26;10.20;99.90
38568;DHT22;24338;48.280;10.970;2023-05-14T05:38:54;10.20;99.90
38568;DHT22;24338;48.280;10.970;2023-05-14T05:41:21;10.20;99.90
38568;DHT22;24338;48.280;10.970;2023-05-14T05:43:48;10.20;99.90
38568;DHT22;24338;48.280;10.970;2023-05-14T05:46:15;10.30;99.90
38568;DHT22;24338;48.280;10.970;2023-05-14T05:48:41;10.30;99.90
38568;DHT22;24338;48.280;10.970;2023-05-14T05:51:08;10.30;99.90
38568;DHT22;24338;48.280;10.970;2023-05-14T05:53:35;10.40;99.90
38568;DHT22;24338;48.280;10.970;2023-05-14T05:56:02;10.40;99.90
38568;DHT22;24338;48.280;10.970;2023-05-14T05:58:29;10.40;99.90
38568;DHT22;24338;48.280;10.970;2023-05-14T06:00:56;10.50;99.90
38568;DHT22;24338;48.280;10.970;2023-05-14T06:03:23;10.50;99.90
38568;DHT22;24338;48.280;10.970;2023-05-14T06:05:50;10.50;99.90
38568;DHT22;24338;48.280;10.970;2023-05-14T06:08:18;10.50;99.90
38568;DHT22;24338;48.280;10.970;2023-05-14T06:10:45;10.60;99.90
38568;DHT22;24338;48.280;10.970;2023-05-14T06:13:13;10.60;99.90
38568;DHT22;24338;48.280;10.970;2023-05-14T06:15:40;10.70;99.90
38568;DHT22;24338;48.280;10.970;2023-05-14T06:18:07;10.70;99.90
38568;DHT22;24338;48.280;10.970;2023-05-14T06:20:34;10.60;99.90
38568;DHT22;24338;48.280;10.970;2023-05-14T06:23:01;10.60;99.90
38568;DHT22;24338;48.280;10.970;2023-05-14T06:25:28;10.70;99.90
38568;DHT22;24338;48.280;10.970;2023-05-14T06:27:55;10.60;99.90
38568;DHT22;24338;48.280;10.970;2023-05-14T06:30:22;10.60;99.90
38568;DHT22;24338;48.280;10.970;2023-05-14T06:32:49;10.50;99.90
38568;DHT22;24338;48.280;10.970;2023-05-14T06:35:17;10.60;99.90
38568;DHT22;24338;48.280;10.970;2023-05-14T06:37:44;10.60;99.90
38568;DHT22;24338;48.280;10.970;2023-05-14T06:40:12;10.50;99.90
38568;DHT22;24338;48.280;10.970;2023-05-14T06:42:41;10.60;99.90
38568;DHT22;24338;48.280;10.970;2023-05-14T06:45:11;10.60;99.90
38568;DHT22;24338;48.280;10.970;2023-05-14T06:47:37;10.70;99.90
38568;DHT22;24338;48.280;10.970;2023-05-14T06:50:04;10.70;99.90
38568;DHT22;24338;48.280;10.970;2023-05-14T06:52:32;10.70;99.90
38568;DHT22;24338;48.280;10.970;2023-05-14T06:54:59;10.60;99.90
38568;DHT22;24338;48.280;10.970;2023-05-14T06:57:26;10.50;99.90
38568;DHT22;24338;48.280;10.970;2023-05-14T06:59:53;10.50;99.90
38568;DHT22;24338;48.280;10.970;2023-05-14T07:02:20;10.50;99.90
38568;DHT22;24338;48.280;10.970;2023-05-14T07:04:47;10.50;99.90
38568;DHT22;24338;48.280;10.970;2023-05-14T07:07:14;10.50;99.90
38568;DHT22;24338;48.280;10.970;2023-05-14T07:09:43;10.50;99.90
38568;DHT22;24338;48.280;10.970;2023-05-14T07:12:10;10.60;99.90
38568;DHT22;24338;48.280;10.970;2023-05-14T07:14:37;10.50;99.90
38568;DHT22;24338;48.280;10.970;2023-05-14T07:17:21;10.60;99.90
38568;DHT22;24338;48.280;10.970;2023-05-14T07:30:57;10.60;99.90
38568;DHT22;24338;48.280;10.970;2023-05-14T07:37:39;10.70;99.90
38568;DHT22;24338;48.280;10.970;2023-05-14T07:40:49;10.90;99.90
38568;DHT22;24338;48.280;10.970;2023-05-14T07:43:16;10.90;99.90
38568;DHT22;24338;48.280;10.970;2023-05-14T07:45:43;10.80;99.90
38568;DHT22;24338;48.280;10.970;2023-05-14T07:48:10;10.80;99.90
38568;DHT22;24338;48.280;10.970;2023-05-14T07:50:37;10.90;99.90
38568;DHT22;24338;48.280;10.970;2023-05-14T07:53:04;10.90;99.90
38568;DHT22;24338;48.280;10.970;2023-05-14T07:55:31;10.90;99.90
38568;DHT22;24338;48.280;10.970;2023-05-14T07:57:58;10.90;99.90
38568;DHT22;24338;48.280;10.970;2023-05-14T08:00:25;10.80;99.90
38568;DHT22;24338;48.280;10.970;2023-05-14T08:02:54;10.80;99.90
38568;DHT22;24338;48.280;10.970;2023-05-14T08:05:21;10.80;99.90
38568;DHT22;24338;48.280;10.970;2023-05-14T08:07:48;10.90;99.90
38568;DHT22;24338;48.280;10.970;2023-05-14T08:10:15;10.90;99.90
38568;DHT22;24338;48.280;10.970;2023-05-14T08:12:41;10.90;99.90
38568;DHT22;24338;48.280;10.970;2023-05-14T08:15:09;10.90;99.90
38568;DHT22;24338;48.280;10.970;2023-05-14T08:17:36;10.90;99.90
38568;DHT22;24338;48.280;10.970;2023-05-14T08:20:33;11.10;99.90
38568;DHT22;24338;48.280;10.970;2023-05-14T08:24:31;11.20;99.90
38568;DHT22;24338;48.280;10.970;2023-05-14T08:28:44;11.40;99.90
38568;DHT22;24338;48.280;10.970;2023-05-14T08:32:51;11.50;99.90
38568;DHT22;24338;48.280;10.970;2023-05-14T08:55:49;12.00;99.90
38568;DHT22;24338;48.280;10.970;2023-05-14T08:59:22;11.90;99.90
38568;DHT22;24338;48.280;10.970;2023-05-14T09:02:06;12.00;99.90
38568;DHT22;24338;48.280;10.970;2023-05-14T09:05:13;12.00;99.90
38568;DHT22;24338;48.280;10.970;2023-05-14T09:07:51;12.30;99.90
38568;DHT22;24338;48.280;10.970;2023-05-14T09:10:17;12.50;99.90
38568;DHT22;24338;48.280;10.970;2023-05-14T09:12:45;12.50;99.90
38568;DHT22;24338;48.280;10.970;2023-05-14T09:15:12;12.50;99.90
38568;DHT22;24338;48.280;10.970;2023-05-14T09:17:38;12.50;99.90
38568;DHT22;24338;48.280;10.970;2023-05-14T09:20:07;12.40;99.90
38568;DHT22;24338;48.280;10.970;2023-05-14T09:22:35;12.40;99.90
38568;DHT22;24338;48.280;10.970;2023-05-14T09:25:06;12.40;99.90
38568;DHT22;24338;48.280;10.970;2023-05-14T09:27:35;12.40;99.90
38568;DHT22;24338;48.280;10.970;2023-05-14T09:32:37;12.40;99.90
38568;DHT22;24338;48.280;10.970;2023-05-14T09:35:21;12.30;99.90
38568;DHT22;24338;48.280;10.970;2023-05-14T09:37:50;12.20;99.90
38568;DHT22;24338;48.280;10.970;2023-05-14T09:40:19;12.10;99.90
38568;DHT22;24338;48.280;10.970;2023-05-14T09:42:47;12.10;99.90
38568;DHT22;24338;48.280;10.970;2023-05-14T09:45:15;12.20;99.90
38568;DHT22;24338;48.280;10.970;2023-05-14T09:47:42;12.20;99.90
38568;DHT22;24338;48.280;10.970;2023-05-14T09:50:11;12.30;99.90
38568;DHT22;24338;48.280;10.970;2023-05-14T09:52:38;12.40;99.90
38568;DHT22;24338;48.280;10.970;2023-05-14T09:55:06;12.40;99.90
38568;DHT22;24338;48.280;10.970;2023-05-14T09:57:55;12.40;99.90
38568;DHT22;24338;48.280;10.970;2023-05-14T10:00:34;12.40;99.90
38568;DHT22;24338;48.280;10.970;2023-05-14T10:03:08;12.30;99.90
38568;DHT22;24338;48.280;10.970;2023-05-14T10:05:41;12.40;99.90
38568;DHT22;24338;48.280;10.970;2023-05-14T10:08:12;12.40;99.90
38568;DHT22;24338;48.280;10.970;2023-05-14T10:10:40;12.40;99.90
38568;DHT22;24338;48.280;10.970;2023-05-14T10:13:13;12.50;99.90
38568;DHT22;24338;48.280;10.970;2023-05-14T10:15:51;12.50;99.90
38568;DHT22;24338;48.280;10.970;2023-05-14T10:18:23;12.40;99.90
38568;DHT22;24338;48.280;10.970;2023-05-14T10:21:05;12.20;99.90
38568;DHT22;24338;48.280;10.970;2023-05-14T10:23:33;12.20;99.90
38568;DHT22;24338;48.280;10.970;2023-05-14T10:26:04;12.30;99.90
38568;DHT22;24338;48.280;10.970;2023-05-14T10:28:31;12.40;99.90
38568;DHT22;24338;48.280;10.970;2023-05-14T10:30:59;12.40;99.90
38568;DHT22;24338;48.280;10.970;2023-05-14T10:33:26;12.50;99.90
38568;DHT22;24338;48.280;10.970;2023-05-14T10:36:03;12.60;99.90
38568;DHT22;24338;48.280;10.970;2023-05-14T10:38:32;12.60;99.90
38568;DHT22;24338;48.280;10.970;2023-05-14T10:41:04;12.60;99.90
38568;DHT22;24338;48.280;10.970;2023-05-14T10:43:36;12.80;99.90
38568;DHT22;24338;48.280;10.970;2023-05-14T10:46:05;13.00;99.90
38568;DHT22;24338;48.280;10.970;2023-05-14T10:48:33;13.00;99.90
38568;DHT22;24338;48.280;10.970;2023-05-14T10:51:00;13.10;99.90
38568;DHT22;24338;48.280;10.970;2023-05-14T10:53:38;13.30;99.90
38568;DHT22;24338;48.280;10.970;2023-05-14T10:56:08;13.40;99.90
38568;DHT22;24338;48.280;10.970;2023-05-14T10:58:40;13.60;99.90
38568;DHT22;24338;48.280;10.970;2023-05-14T11:01:10;13.80;99.90
38568;DHT22;24338;48.280;10.970;2023-05-14T11:03:45;13.90;99.90
38568;DHT22;24338;48.280;10.970;2023-05-14T11:06:13;13.80;99.90
38568;DHT22;24338;48.280;10.970;2023-05-14T11:08:41;13.80;99.90
38568;DHT22;24338;48.280;10.970;2023-05-14T11:11:08;14.00;99.90
38568;DHT22;24338;48.280;10.970;2023-05-14T11:13:35;13.80;99.90
38568;DHT22;24338;48.280;10.970;2023-05-14T11:16:03;13.80;99.90
38568;DHT22;24338;48.280;10.970;2023-05-14T11:18:53;13.80;99.90
38568;DHT22;24338;48.280;10.970;2023-05-14T11:21:26;13.90;99.90
38568;DHT22;24338;48.280;10.970;2023-05-14T11:23:54;14.00;99.90
38568;DHT22;24338;48.280;10.970;2023-05-14T11:26:22;14.10;99.90
38568;DHT22;24338;48.280;10.970;2023-05-14T11:28:49;14.10;99.90
38568;DHT22;24338;48.280;10.970;2023-05-14T11:31:16;14.00;99.90
38568;DHT22;24338;48.280;10.970;2023-05-14T11:33:43;14.00;99.90
38568;DHT22;24338;48.280;10.970;2023-05-14T11:36:10;13.90;99.90
38568;DHT22;24338;48.280;10.970;2023-05-14T11:38:47;13.90;99.90
38568;DHT22;24338;48.280;10.970;2023-05-14T11:41:14;14.00;99.90
38568;DHT22;24338;48.280;10.970;2023-05-14T11:43:41;14.00;99.90
38568;DHT22;24338;48.280;10.970;2023-05-14T11:46:15;14.30;99.90
38568;DHT22;24338;48.280;10.970;2023-05-14T11:48:43;14.50;99.90
38568;DHT22;24338;48.280;10.970;2023-05-14T11:51:11;14.80;99.90
38568;DHT22;24338;48.280;10.970;2023-05-14T11:53:38;14.90;99.90
38568;DHT22;24338;48.280;10.970;2023-05-14T11:56:05;15.00;99.90
38568;DHT22;24338;48.280;10.970;2023-05-14T11:58:35;15.00;99.90
38568;DHT22;24338;48.280;10.970;2023-05-14T12:01:02;14.80;99.90
38568;DHT22;24338;48.280;10.970;2023-05-14T12:03:29;14.60;99.90
38568;DHT22;24338;48.280;10.970;2023-05-14T12:06:01;14.70;99.90
38568;DHT22;24338;48.280;10.970;2023-05-14T12:08:29;14.80;99.90
38568;DHT22;24338;48.280;10.970;2023-05-14T12:10:58;14.90;99.90
38568;DHT22;24338;48.280;10.970;2023-05-14T12:13:29;14.90;99.90
38568;DHT22;24338;48.280;10.970;2023-05-14T12:16:00;15.00;99.90
38568;DHT22;24338;48.280;10.970;2023-05-14T12:18:30;15.30;99.90
38568;DHT22;24338;48.280;10.970;2023-05-14T12:21:04;15.70;99.90
38568;DHT22;24338;48.280;10.970;2023-05-14T12:23:34;16.00;99.90
38568;DHT22;24338;48.280;10.970;2023-05-14T12:26:02;16.40;99.90
38568;DHT22;24338;48.280;10.970;2023-05-14T12:28:29;16.90;99.90
38568;DHT22;24338;48.280;10.970;2023-05-14T12:30:57;17.00;99.90
38568;DHT22;24338;48.280;10.970;2023-05-14T12:33:28;16.70;99.90
38568;DHT22;24338;48.280;10.970;2023-05-14T12:35:55;16.50;99.90
38568;DHT22;24338;48.280;10.970;2023-05-14T12:38:47;16.40;99.90
38568;DHT22;24338;48.280;10.970;2023-05-14T12:41:14;16.10;99.90
38568;DHT22;24338;48.280;10.970;2023-05-14T12:43:46;16.10;99.90
38568;DHT22;24338;48.280;10.970;2023-05-14T12:46:14;16.30;99.90
38568;DHT22;24338;48.280;10.970;2023-05-14T12:48:42;16.50;99.90
38568;DHT22;24338;48.280;10.970;2023-05-14T12:51:09;16.50;99.90
38568;DHT22;24338;48.280;10.970;2023-05-14T12:53:35;16.50;99.90
38568;DHT22;24338;48.280;10.970;2023-05-14T12:56:02;16.50;99.90
38568;DHT22;24338;48.280;10.970;2023-05-14T12:58:29;16.70;99.90
38568;DHT22;24338;48.280;10.970;2023-05-14T13:00:56;16.70;99.90
38568;DHT22;24338;48.280;10.970;2023-05-14T13:03:23;16.60;99.90
38568;DHT22;24338;48.280;10.970;2023-05-14T13:05:51;16.60;99.90
38568;DHT22;24338;48.280;10.970;2023-05-14T13:08:19;16.50;99.90
38568;DHT22;24338;48.280;10.970;2023-05-14T13:10:47;16.60;99.90
38568;DHT22;24338;48.280;10.970;2023-05-14T13:13:14;16.60;99.90
38568;DHT22;24338;48.280;10.970;2023-05-14T13:15:41;17.10;99.90
38568;DHT22;24338;48.280;10.970;2023-05-14T13:18:08;17.30;99.90
38568;DHT22;24338;48.280;10.970;2023-05-14T13:20:35;17.10;99.90
38568;DHT22;24338;48.280;10.970;2023-05-14T13:23:02;17.30;99.90
38568;DHT22;24338;48.280;10.970;2023-05-14T13:25:29;17.10;99.90
38568;DHT22;24338;48.280;10.970;2023-05-14T13:27:56;16.80;99.90
38568;DHT22;24338;48.280;10.970;2023-05-14T13:30:23;16.80;99.90
38568;DHT22;24338;48.280;10.970;2023-05-14T13:32:50;17.00;99.90
38568;DHT22;24338;48.280;10.970;2023-05-14T13:35:17;17.10;99.90
38568;DHT22;24338;48.280;10.970;2023-05-14T13:37:45;17.40;99.90
38568;DHT22;24338;48.280;10.970;2023-05-14T13:40:12;17.90;99.90
38568;DHT22;24338;48.280;10.970;2023-05-14T13:42:39;18.50;99.90
38568;DHT22;24338;48.280;10.970;2023-05-14T13:45:06;18.60;99.90
38568;DHT22;24338;48.280;10.970;2023-05-14T13:47:33;18.50;99.90
38568;DHT22;24338;48.280;10.970;2023-05-14T13:50:00;18.80;99.90
38568;DHT22;24338;48.280;10.970;2023-05-14T13:52:27;18.90;99.90
38568;DHT22;24338;48.280;10.970;2023-05-14T13:54:54;18.80;99.90
38568;DHT22;24338;48.280;10.970;2023-05-14T13:57:22;18.90;99.90
38568;DHT22;24338;48.280;10.970;2023-05-14T13:59:48;19.00;99.90
38568;DHT22;24338;48.280;10.970;2023-05-14T14:02:16;19.40;99.90
38568;DHT22;24338;48.280;10.970;2023-05-14T14:04:43;19.60;99.90
38568;DHT22;24338;48.280;10.970;2023-05-14T14:07:10;19.30;99.90
38568;DHT22;24338;48.280;10.970;2023-05-14T14:09:37;19.40;99.90
38568;DHT22;24338;48.280;10.970;2023-05-14T14:12:04;19.40;99.90
38568;DHT22;24338;48.280;10.970;2023-05-14T14:14:31;18.90;99.60
38568;DHT22;24338;48.280;10.970;2023-05-14T14:16:58;19.00;99.90
38568;DHT22;24338;48.280;10.970;2023-05-14T14:19:25;19.30;99.90
38568;DHT22;24338;48.280;10.970;2023-05-14T14:21:52;19.20;99.90
38568;DHT22;24338;48.280;10.970;2023-05-14T14:24:19;19.10;99.90
38568;DHT22;24338;48.280;10.970;2023-05-14T14:26:46;18.80;99.90
38568;DHT22;24338;48.280;10.970;2023-05-14T14:29:13;18.70;99.90
38568;DHT22;24338;48.280;10.970;2023-05-14T14:31:40;18.80;99.90
38568;DHT22;24338;48.280;10.970;2023-05-14T14:34:07;18.90;99.90
38568;DHT22;24338;48.280;10.970;2023-05-14T14:36:33;19.20;99.90
38568;DHT22;24338;48.280;10.970;2023-05-14T14:39:01;19.40;99.90
38568;DHT22;24338;48.280;10.970;2023-05-14T14:41:27;19.60;99.90
38568;DHT22;24338;48.280;10.970;2023-05-14T14:43:54;19.40;99.10
38568;DHT22;24338;48.280;10.970;2023-05-14T14:46:21;19.30;97.80
38568;DHT22;24338;48.280;10.970;2023-05-14T14:48:48;19.40;98.50
38568;DHT22;24338;48.280;10.970;2023-05-14T14:51:15;19.50;98.40
38568;DHT22;24338;48.280;10.970;2023-05-14T14:53:42;19.40;97.70
38568;DHT22;24338;48.280;10.970;2023-05-14T14:56:09;19.50;97.80
38568;DHT22;24338;48.280;10.970;2023-05-14T14:58:36;19.50;96.10
38568;DHT22;24338;48.280;10.970;2023-05-14T15:01:04;18.90;97.70
38568;DHT22;24338;48.280;10.970;2023-05-14T15:03:31;18.60;99.30
38568;DHT22;24338;48.280;10.970;2023-05-14T15:05:58;18.60;99.90
38568;DHT22;24338;48.280;10.970;2023-05-14T15:08:25;18.70;99.40
38568;DHT22;24338;48.280;10.970;2023-05-14T15:10:55;18.60;99.80
38568;DHT22;24338;48.280;10.970;2023-05-14T15:13:22;18.60;99.90
38568;DHT22;24338;48.280;10.970;2023-05-14T15:15:50;18.80;98.70
38568;DHT22;24338;48.280;10.970;2023-05-14T15:18:18;18.60;98.20
38568;DHT22;24338;48.280;10.970;2023-05-14T15:20:45;18.40;99.50
38568;DHT22;24338;48.280;10.970;2023-05-14T15:23:12;18.10;99.90
38568;DHT22;24338;48.280;10.970;2023-05-14T15:25:38;18.10;99.90
38568;DHT22;24338;48.280;10.970;2023-05-14T15:28:05;18.30;99.90
38568;DHT22;24338;48.280;10.970;2023-05-14T15:30:33;18.60;99.90
38568;DHT22;24338;48.280;10.970;2023-05-14T15:33:00;18.70;99.90
38568;DHT22;24338;48.280;10.970;2023-05-14T15:35:27;18.70;99.90
38568;DHT22;24338;48.280;10.970;2023-05-14T15:37:55;18.50;99.90
38568;DHT22;24338;48.280;10.970;2023-05-14T15:40:25;18.50;99.90
38568;DHT22;24338;48.280;10.970;2023-05-14T15:42:53;18.40;98.90
38568;DHT22;24338;48.280;10.970;2023-05-14T15:45:20;18.50;99.90
38568;DHT22;24338;48.280;10.970;2023-05-14T15:47:47;18.40;99.10
38568;DHT22;24338;48.280;10.970;2023-05-14T15:50:14;18.50;99.90
38568;DHT22;24338;48.280;10.970;2023-05-14T15:52:41;18.60;99.90
38568;DHT22;24338;48.280;10.970;2023-05-14T15:55:08;18.50;99.90
38568;DHT22;24338;48.280;10.970;2023-05-14T15:57:35;18.60;99.90
38568;DHT22;24338;48.280;10.970;2023-05-14T16:00:03;18.30;99.00
38568;DHT22;24338;48.280;10.970;2023-05-14T16:02:37;17.80;98.80
38568;DHT22;24338;48.280;10.970;2023-05-14T16:05:06;17.70;99.90
38568;DHT22;24338;48.280;10.970;2023-05-14T16:07:34;17.30;99.90
38568;DHT22;24338;48.280;10.970;2023-05-14T16:10:01;17.00;99.90
38568;DHT22;24338;48.280;10.970;2023-05-14T16:12:29;16.80;99.90
38568;DHT22;24338;48.280;10.970;2023-05-14T16:14:55;16.80;99.90